createdAt,value
2019-05-12T00:00:04.805Z,3.40
2019-05-12T00:02:35.013Z,3.60
2019-05-12T00:05:05.515Z,2.70
2019-05-12T00:07:38.207Z,3.22
2019-05-12T00:10:24.398Z,3.33
2019-05-12T00:12:54.648Z,2.95
2019-05-12T00:15:24.763Z,3.10
2019-05-12T00:17:55.207Z,3.58
2019-05-12T00:20:25.530Z,3.42
2019-05-12T00:22:59.048Z,3.05
2019-05-12T00:25:29.269Z,3.40
2019-05-12T00:27:59.676Z,2.87
2019-05-12T00:30:51.626Z,2.77
2019-05-12T00:33:21.842Z,3.25
2019-05-12T00:35:52.042Z,2.83
2019-05-12T00:38:22.265Z,3.30
2019-05-12T00:40:52.452Z,3.05
2019-05-12T00:43:22.575Z,3.30
2019-05-12T00:45:53.199Z,2.98
2019-05-12T00:48:23.366Z,3.08
2019-05-12T00:50:53.579Z,3.35
2019-05-12T00:53:36.174Z,2.72
2019-05-12T00:55:57.923Z,3.42
2019-05-12T00:58:28.260Z,3.22
2019-05-12T01:00:59.699Z,3.25
2019-05-12T01:03:30.594Z,2.95
2019-05-12T01:06:00.893Z,2.98
2019-05-12T01:09:08.863Z,3.08
2019-05-12T01:11:39.867Z,2.80
2019-05-12T01:14:10.513Z,3.00
2019-05-12T01:16:41.137Z,2.83
2019-05-12T01:19:11.379Z,3.70
2019-05-12T01:21:41.490Z,2.85
2019-05-12T01:24:11.690Z,3.35
2019-05-12T01:26:41.982Z,3.12
2019-05-12T01:29:12.660Z,3.50
2019-05-12T01:31:55.988Z,3.33
2019-05-12T01:34:27.786Z,3.25
2019-05-12T01:37:18.403Z,3.62
2019-05-12T01:39:49.236Z,3.55
2019-05-12T01:42:19.836Z,3.15
2019-05-12T01:44:50.530Z,3.80
2019-05-12T01:47:21.394Z,3.17
2019-05-12T01:49:51.620Z,2.72
2019-05-12T01:52:22.366Z,3.02
2019-05-12T01:54:53.278Z,3.72
2019-05-12T01:57:24.260Z,3.20
2019-05-12T01:59:54.450Z,2.85
2019-05-12T02:02:24.764Z,3.52
2019-05-12T02:05:08.558Z,3.12
2019-05-12T02:07:58.110Z,3.22
2019-05-12T02:10:29.120Z,3.60
2019-05-12T02:13:19.799Z,3.33
2019-05-12T02:16:05.320Z,3.72
2019-05-12T02:18:35.505Z,3.60
2019-05-12T02:21:08.302Z,3.52
2019-05-12T02:23:38.674Z,2.90
2019-05-12T02:26:09.065Z,3.30
2019-05-12T02:28:39.575Z,2.83
2019-05-12T02:31:09.902Z,3.25
2019-05-12T02:33:40.061Z,3.33
2019-05-12T02:36:10.685Z,3.42
2019-05-12T02:38:40.921Z,3.42
2019-05-12T02:41:11.406Z,3.30
2019-05-12T02:43:41.689Z,3.77
2019-05-12T02:46:15.284Z,3.40
2019-05-12T02:48:45.013Z,4.22
2019-05-12T02:51:17.161Z,3.80
2019-05-12T02:53:47.986Z,3.87
2019-05-12T02:56:20.107Z,3.52
2019-05-12T02:58:54.342Z,3.40
2019-05-12T03:01:34.584Z,3.50
2019-05-12T03:04:06.024Z,3.70
2019-05-12T03:06:39.067Z,3.37
2019-05-12T03:09:09.941Z,3.10
2019-05-12T03:11:44.590Z,3.02
2019-05-12T03:14:15.713Z,3.02
2019-05-12T03:16:45.588Z,2.92
2019-05-12T03:19:15.921Z,2.75
2019-05-12T03:21:59.310Z,3.25
2019-05-12T03:24:29.522Z,2.72
2019-05-12T03:27:14.577Z,3.27
2019-05-12T03:29:44.910Z,3.17
2019-05-12T03:32:27.430Z,2.80
2019-05-12T03:34:58.442Z,2.90
2019-05-12T03:37:31.364Z,3.10
2019-05-12T03:40:01.409Z,2.40
2019-05-12T03:42:35.215Z,2.65
2019-05-12T03:45:04.862Z,3.17
2019-05-12T03:47:35.927Z,2.20
2019-05-12T03:50:08.193Z,2.47
2019-05-12T03:52:38.724Z,2.50
2019-05-12T03:55:27.265Z,2.10
2019-05-12T03:57:44.847Z,2.42
2019-05-12T04:00:18.807Z,2.22
2019-05-12T04:02:49.046Z,2.47
2019-05-12T04:05:19.253Z,2.52
2019-05-12T04:07:49.489Z,2.00
2019-05-12T04:10:19.720Z,2.62
2019-05-12T04:12:49.946Z,2.42
2019-05-12T04:15:20.450Z,3.33
2019-05-12T04:17:54.100Z,3.60
2019-05-12T04:20:25.509Z,3.20
2019-05-12T04:22:55.157Z,2.87
2019-05-12T04:25:25.735Z,2.77
2019-05-12T04:27:56.276Z,3.00
2019-05-12T04:30:26.411Z,3.05
2019-05-12T04:33:05.650Z,3.20
2019-05-12T04:35:36.477Z,2.98
2019-05-12T04:38:16.276Z,3.10
2019-05-12T04:40:46.749Z,2.70
2019-05-12T04:43:17.294Z,3.30
2019-05-12T04:45:47.424Z,2.85
2019-05-12T04:48:21.312Z,3.02
2019-05-12T04:50:49.782Z,2.52
2019-05-12T04:53:20.019Z,3.08
2019-05-12T04:56:05.912Z,2.95
2019-05-12T04:58:25.294Z,3.00
2019-05-12T05:00:54.242Z,3.10
2019-05-12T05:03:25.196Z,2.45
2019-05-12T05:05:55.756Z,3.33
2019-05-12T05:08:26.499Z,2.20
2019-05-12T05:11:00.825Z,2.40
2019-05-12T05:13:31.065Z,1.80
2019-05-12T05:16:01.459Z,2.00
2019-05-12T05:18:31.700Z,2.10
2019-05-12T05:21:04.536Z,1.85
2019-05-12T05:23:33.967Z,1.87
2019-05-12T05:26:04.591Z,1.67
2019-05-12T05:28:34.806Z,1.90
2019-05-12T05:31:05.347Z,1.67
2019-05-12T05:33:35.570Z,1.60
2019-05-12T05:36:08.921Z,1.65
2019-05-12T05:38:39.013Z,1.87
2019-05-12T05:41:10.609Z,1.75
2019-05-12T05:43:48.679Z,1.80
2019-05-12T05:46:17.045Z,1.87
2019-05-12T05:48:47.199Z,1.80
2019-05-12T05:51:17.345Z,2.02
2019-05-12T05:53:49.792Z,2.37
2019-05-12T05:57:03.009Z,2.20
2019-05-12T05:59:36.575Z,2.47
2019-05-12T06:02:04.879Z,2.30
2019-05-12T06:04:39.184Z,2.45
2019-05-12T06:07:07.274Z,2.95
2019-05-12T06:10:17.629Z,2.85
2019-05-12T06:12:50.847Z,2.80
2019-05-12T06:15:19.794Z,2.70
2019-05-12T06:17:50.576Z,2.70
2019-05-12T06:20:24.634Z,3.15
2019-05-12T06:22:57.581Z,2.55
2019-05-12T06:25:44.988Z,2.72
2019-05-12T06:28:01.453Z,2.42
2019-05-12T06:30:37.566Z,2.65
2019-05-12T06:33:04.258Z,2.67
2019-05-12T06:35:40.807Z,2.60
2019-05-12T06:38:06.926Z,2.27
2019-05-12T06:41:30.749Z,2.05
2019-05-12T06:47:14.332Z,1.92
2019-05-12T06:49:48.832Z,1.47
2019-05-12T06:52:19.103Z,1.70
2019-05-12T06:54:51.145Z,1.20
2019-05-12T06:57:28.411Z,1.40
2019-05-12T07:00:35.023Z,1.70
2019-05-12T07:06:26.549Z,1.32
2019-05-12T07:09:06.424Z,1.62
2019-05-12T07:11:41.691Z,1.60
2019-05-12T07:14:05.300Z,1.22
2019-05-12T07:16:34.156Z,1.57
2019-05-12T07:19:07.750Z,1.60
2019-05-12T07:21:36.428Z,1.62
2019-05-12T07:24:11.096Z,1.40
2019-05-12T07:26:39.358Z,1.50
2019-05-12T07:29:09.589Z,1.50
2019-05-12T07:31:40.053Z,1.42
2019-05-12T07:34:10.585Z,1.32
2019-05-12T07:36:41.300Z,1.35
2019-05-12T07:39:13.549Z,1.40
2019-05-12T07:41:50.801Z,1.45
2019-05-12T07:44:22.019Z,1.55
2019-05-12T07:46:50.916Z,1.20
2019-05-12T07:49:59.892Z,1.52
2019-05-12T07:52:30.140Z,1.50
2019-05-12T07:55:00.386Z,1.50
2019-05-12T07:57:36.268Z,0.93
2019-05-12T08:00:04.855Z,1.00
2019-05-12T08:02:35.813Z,1.27
2019-05-12T08:05:11.042Z,1.52
2019-05-12T08:07:38.248Z,1.50
2019-05-12T08:10:17.784Z,1.27
2019-05-12T08:13:04.989Z,1.15
2019-05-12T08:15:35.263Z,1.05
2019-05-12T08:18:07.988Z,1.27
2019-05-12T08:20:37.490Z,1.07
2019-05-12T08:23:10.369Z,1.00
2019-05-12T08:25:40.056Z,1.00
2019-05-12T08:28:15.501Z,1.05
2019-05-12T08:30:47.437Z,1.17
2019-05-12T08:33:14.976Z,0.98
2019-05-12T08:35:45.215Z,0.90
2019-05-12T08:38:15.442Z,1.12
2019-05-12T08:40:56.268Z,0.95
2019-05-12T08:43:26.428Z,1.20
2019-05-12T08:46:00.191Z,1.10
2019-05-12T08:48:28.654Z,1.02
2019-05-12T08:50:59.013Z,1.20
2019-05-12T08:53:29.289Z,1.40
2019-05-12T08:56:05.004Z,1.37
2019-05-12T08:58:48.195Z,1.22
2019-05-12T09:01:20.322Z,1.30
2019-05-12T09:03:47.645Z,1.12
2019-05-12T09:06:19.839Z,1.10
2019-05-12T09:08:54.074Z,1.10
2019-05-12T09:11:24.916Z,0.90
2019-05-12T09:14:00.470Z,1.00
2019-05-12T09:16:27.082Z,1.00
2019-05-12T09:18:57.588Z,1.35
2019-05-12T09:21:59.136Z,1.20
2019-05-12T09:24:29.612Z,1.20
2019-05-12T09:27:07.000Z,1.30
2019-05-12T09:29:34.040Z,1.00
2019-05-12T09:32:05.415Z,1.15
2019-05-12T09:34:36.004Z,1.05
2019-05-12T09:39:59.828Z,1.20
2019-05-12T09:42:30.261Z,0.90
2019-05-12T09:45:06.121Z,0.88
2019-05-12T09:47:34.293Z,0.90
2019-05-12T09:50:09.641Z,1.15
2019-05-12T09:52:38.588Z,0.90
2019-05-12T09:55:08.829Z,1.02
2019-05-12T09:57:40.705Z,0.90
2019-05-12T10:00:13.603Z,1.07
2019-05-12T10:02:43.668Z,1.20
2019-05-12T10:05:14.669Z,0.95
2019-05-12T10:07:45.330Z,1.00
2019-05-12T10:10:16.056Z,1.00
2019-05-12T10:12:50.313Z,2.08
2019-05-12T10:15:26.753Z,1.30
2019-05-12T10:17:50.600Z,1.30
2019-05-12T10:20:21.683Z,1.15
2019-05-12T10:22:54.131Z,1.50
2019-05-12T10:25:28.669Z,1.07
2019-05-12T10:28:02.997Z,1.25
2019-05-12T10:34:23.585Z,1.37
2019-05-12T10:36:54.041Z,1.12
2019-05-12T10:39:25.003Z,1.20
2019-05-12T10:41:56.028Z,1.32
2019-05-12T10:47:23.911Z,1.00
2019-05-12T10:49:54.488Z,1.00
2019-05-12T10:52:29.471Z,1.10
2019-05-12T10:55:04.331Z,1.40
2019-05-12T10:57:35.456Z,0.95
2019-05-12T11:00:09.034Z,1.30
2019-05-12T11:02:39.289Z,1.10
2019-05-12T11:05:11.444Z,1.50
2019-05-12T11:07:43.583Z,1.05
2019-05-12T11:10:41.517Z,1.25
2019-05-12T11:13:14.189Z,1.00
2019-05-12T11:15:46.231Z,1.00
2019-05-12T11:18:20.492Z,1.00
2019-05-12T11:20:50.285Z,1.55
2019-05-12T11:23:38.269Z,0.95
2019-05-12T11:26:08.837Z,1.07
2019-05-12T11:28:39.105Z,1.20
2019-05-12T11:31:09.358Z,1.12
2019-05-12T11:33:40.272Z,1.10
2019-05-12T11:36:13.539Z,1.27
2019-05-12T11:38:44.487Z,1.12
2019-05-12T11:41:19.773Z,1.10
2019-05-12T11:46:44.034Z,1.10
2019-05-12T11:52:24.068Z,1.37
2019-05-12T11:55:03.017Z,1.10
2019-05-12T11:57:34.099Z,1.00
2019-05-12T12:00:05.573Z,1.35
2019-05-12T12:02:36.411Z,0.95
2019-05-12T12:05:09.655Z,1.10
2019-05-12T12:07:49.077Z,0.95
2019-05-12T12:10:14.102Z,1.07
2019-05-12T12:12:48.951Z,1.00
2019-05-12T12:15:20.306Z,1.10
2019-05-12T12:17:48.356Z,1.00
2019-05-12T12:20:22.359Z,0.95
2019-05-12T12:23:00.075Z,1.05
2019-05-12T12:25:34.254Z,0.90
2019-05-12T12:28:04.682Z,0.90
2019-05-12T12:30:35.387Z,1.10
2019-05-12T12:33:06.016Z,1.07
2019-05-12T12:35:36.638Z,0.85
2019-05-12T12:38:07.627Z,1.00
2019-05-12T12:40:44.517Z,1.00
2019-05-12T12:43:14.759Z,1.25
2019-05-12T12:45:54.132Z,0.95
2019-05-12T12:48:25.532Z,0.88
2019-05-12T12:51:27.994Z,0.90
2019-05-12T12:53:58.581Z,0.85
2019-05-12T12:56:30.218Z,1.17
2019-05-12T12:59:09.925Z,0.80
2019-05-12T13:01:35.821Z,0.75
2019-05-12T13:04:06.825Z,0.90
2019-05-12T13:06:37.054Z,0.80
2019-05-12T13:09:18.266Z,0.85
2019-05-12T13:11:44.480Z,1.00
2019-05-12T13:14:16.940Z,0.85
2019-05-12T13:16:49.528Z,0.93
2019-05-12T13:19:19.138Z,0.85
2019-05-12T13:21:49.385Z,1.00
2019-05-12T13:24:19.667Z,1.00
2019-05-12T13:26:49.907Z,0.90
2019-05-12T13:29:20.158Z,0.75
2019-05-12T13:31:50.398Z,0.90
2019-05-12T13:34:20.658Z,1.05
2019-05-12T13:36:50.830Z,0.70
2019-05-12T13:39:21.386Z,1.07
2019-05-12T13:41:58.501Z,0.95
2019-05-12T13:44:24.106Z,0.68
2019-05-12T13:46:58.686Z,0.82
2019-05-12T13:49:29.941Z,0.80
2019-05-12T13:52:04.098Z,1.10
2019-05-12T13:54:43.715Z,1.10
2019-05-12T13:57:23.656Z,0.90
2019-05-12T14:00:04.200Z,1.10
2019-05-12T14:02:25.948Z,1.10
2019-05-12T14:05:00.432Z,1.15
2019-05-12T14:07:28.650Z,1.02
2019-05-12T14:09:59.245Z,1.10
2019-05-12T14:12:29.403Z,1.45
2019-05-12T14:14:59.611Z,1.00
2019-05-12T14:17:31.098Z,1.02
2019-05-12T14:20:04.019Z,1.30
2019-05-12T14:22:34.262Z,1.22
2019-05-12T14:25:05.571Z,1.05
2019-05-12T14:27:36.772Z,1.65
2019-05-12T14:30:10.279Z,1.20
2019-05-12T14:32:40.136Z,1.40
2019-05-12T14:35:10.759Z,1.20
2019-05-12T14:37:45.712Z,1.60
2019-05-12T14:40:15.107Z,1.25
2019-05-12T14:42:48.621Z,1.60
2019-05-12T14:45:24.233Z,1.10
2019-05-12T14:50:46.626Z,1.15
2019-05-12T14:53:16.844Z,1.37
2019-05-12T14:55:47.673Z,1.40
2019-05-12T14:58:20.567Z,1.57
2019-05-12T15:00:50.835Z,1.30
2019-05-12T15:03:24.175Z,1.20
2019-05-12T15:05:54.782Z,1.05
2019-05-12T15:08:35.658Z,1.30
2019-05-12T15:10:57.014Z,1.05
2019-05-12T15:13:27.279Z,1.20
2019-05-12T15:16:00.087Z,1.57
2019-05-12T15:18:30.138Z,1.57
2019-05-12T15:21:00.375Z,1.30
2019-05-12T15:23:33.080Z,1.20
2019-05-12T15:26:09.574Z,1.67
2019-05-12T15:28:38.174Z,1.50
2019-05-12T15:31:09.210Z,1.70
2019-05-12T15:33:39.910Z,1.57
2019-05-12T15:36:13.655Z,1.60
2019-05-12T15:38:44.204Z,1.60
2019-05-12T15:41:19.833Z,1.70
2019-05-12T15:43:49.066Z,1.67
2019-05-12T15:46:19.823Z,1.40
2019-05-12T15:48:50.357Z,1.30
2019-05-12T15:51:20.647Z,1.98
2019-05-12T15:53:50.990Z,1.90
2019-05-12T15:56:25.915Z,2.00
2019-05-12T15:59:01.336Z,1.85
2019-05-12T16:01:29.246Z,1.92
2019-05-12T16:03:59.405Z,3.50
2019-05-12T16:06:45.102Z,1.65
2019-05-12T16:09:13.256Z,1.50
2019-05-12T16:11:55.447Z,1.57
2019-05-12T16:14:30.528Z,1.60
2019-05-12T16:17:03.638Z,1.42
2019-05-12T16:19:34.970Z,1.67
2019-05-12T16:22:16.581Z,1.60
2019-05-12T16:24:48.913Z,2.10
2019-05-12T16:27:24.929Z,2.05
2019-05-12T16:29:56.488Z,2.08
2019-05-12T16:32:39.635Z,2.30
2019-05-12T16:35:07.286Z,1.85
2019-05-12T16:37:37.662Z,1.80
2019-05-12T16:43:46.616Z,2.00
2019-05-12T16:46:16.879Z,2.25
2019-05-12T16:48:53.508Z,1.80
2019-05-12T16:51:20.660Z,1.50
2019-05-12T16:53:51.189Z,1.60
2019-05-12T16:57:36.451Z,1.57
2019-05-12T17:00:18.805Z,1.50
2019-05-12T17:02:55.794Z,1.52
2019-05-12T17:05:24.152Z,1.70
2019-05-12T17:07:57.458Z,1.70
2019-05-12T17:10:37.602Z,1.80
2019-05-12T17:13:23.851Z,1.67
2019-05-12T17:16:00.371Z,1.95
2019-05-12T17:18:46.186Z,1.80
2019-05-12T17:25:34.471Z,1.57
2019-05-12T17:28:05.751Z,1.80
2019-05-12T17:30:36.878Z,1.40
2019-05-12T17:33:07.854Z,1.27
2019-05-12T17:35:40.143Z,1.35
2019-05-12T17:38:19.938Z,1.40
2019-05-12T17:43:26.770Z,1.57
2019-05-12T17:46:01.353Z,1.85
2019-05-12T17:48:31.349Z,1.80
2019-05-12T17:51:03.435Z,1.45
2019-05-12T17:53:36.183Z,1.57
2019-05-12T17:56:13.959Z,1.85
2019-05-12T17:58:47.583Z,1.47
2019-05-12T18:01:23.147Z,1.50
2019-05-12T18:03:50.904Z,1.45
2019-05-12T18:06:26.857Z,1.60
2019-05-12T18:09:09.295Z,1.75
2019-05-12T18:11:39.725Z,1.57
2019-05-12T18:14:10.345Z,1.50
2019-05-12T18:16:43.363Z,1.45
2019-05-12T18:19:15.308Z,1.57
2019-05-12T18:21:48.182Z,1.55
2019-05-12T18:24:20.280Z,1.77
2019-05-12T18:26:58.719Z,1.40
2019-05-12T18:29:24.345Z,1.47
2019-05-12T18:31:56.661Z,1.60
2019-05-12T18:34:31.140Z,1.62
2019-05-12T18:37:05.299Z,1.52
2019-05-12T18:39:38.319Z,1.90
2019-05-12T18:42:09.706Z,1.50
2019-05-12T18:44:44.029Z,1.80
2019-05-12T18:47:17.019Z,1.62
2019-05-12T18:49:49.997Z,1.57
2019-05-12T18:52:23.629Z,1.82
2019-05-12T18:54:57.108Z,1.80
2019-05-12T18:57:28.468Z,1.80
2019-05-12T19:00:04.049Z,1.65
2019-05-12T19:02:33.491Z,2.15
2019-05-12T19:05:04.477Z,1.70
2019-05-12T19:07:40.037Z,1.72
2019-05-12T19:10:11.128Z,2.30
2019-05-12T19:12:44.225Z,2.30
2019-05-12T19:15:21.686Z,1.98
2019-05-12T19:17:48.446Z,1.72
2019-05-12T19:20:19.881Z,1.90
2019-05-12T19:22:59.370Z,1.80
2019-05-12T19:25:30.036Z,1.80
2019-05-12T19:28:05.667Z,1.90
2019-05-12T19:30:36.431Z,1.67
2019-05-12T19:33:10.368Z,1.87
2019-05-12T19:35:38.407Z,1.80
2019-05-12T19:38:09.696Z,1.80
2019-05-12T19:40:40.200Z,2.35
2019-05-12T19:43:11.332Z,1.85
2019-05-12T19:45:43.496Z,2.25
2019-05-12T19:48:23.968Z,2.00
2019-05-12T19:50:54.907Z,2.50
2019-05-12T19:53:21.041Z,2.55
2019-05-12T19:55:51.538Z,2.30
2019-05-12T20:01:18.117Z,2.52
2019-05-12T20:03:49.981Z,2.12
2019-05-12T20:06:24.151Z,2.62
2019-05-12T20:09:05.975Z,2.72
2019-05-12T20:12:24.101Z,2.65
2019-05-12T20:15:15.333Z,2.80
2019-05-12T20:18:27.507Z,2.58
2019-05-12T20:21:01.221Z,2.62
